createdAt,value
2018-07-04T00:04:30.068Z,93.50
2018-07-04T00:07:18.962Z,94.71
2018-07-04T00:12:54.679Z,95.03
2018-07-04T00:15:46.117Z,93.78
2018-07-04T00:18:33.117Z,95.31
2018-07-04T00:21:20.142Z,95.98
2018-07-04T00:26:45.750Z,95.16
2018-07-04T00:34:57.434Z,95.88
2018-07-04T00:37:46.354Z,97.05
2018-07-04T00:40:33.323Z,96.50
2018-07-04T00:43:20.337Z,95.14
2018-07-04T00:54:11.658Z,92.44
2018-07-04T00:56:58.781Z,91.88
2018-07-04T00:59:46.821Z,94.95
2018-07-04T01:02:33.826Z,98.09
2018-07-04T01:05:20.823Z,99.80
2018-07-04T01:08:07.841Z,100.00
2018-07-04T01:10:54.801Z,100.00
2018-07-04T01:16:17.310Z,100.00
2018-07-04T01:19:05.105Z,100.00
2018-07-04T01:21:52.047Z,100.00
2018-07-04T01:29:59.149Z,100.00
2018-07-04T01:35:24.757Z,100.00
2018-07-04T01:38:15.445Z,100.00
2018-07-04T01:41:02.481Z,100.00
2018-07-04T01:43:49.474Z,99.63
2018-07-04T01:49:12.233Z,97.48
2018-07-04T01:54:34.863Z,100.00
2018-07-04T01:57:22.050Z,100.00
2018-07-04T02:00:09.025Z,100.00
2018-07-04T02:05:33.732Z,100.00
2018-07-04T02:14:27.198Z,100.00
2018-07-04T02:20:02.205Z,100.00
2018-07-04T02:22:49.343Z,100.00
2018-07-04T02:25:36.262Z,100.00
2018-07-04T02:31:02.821Z,100.00
2018-07-04T02:33:50.926Z,100.00
2018-07-04T02:36:38.085Z,100.00
2018-07-04T02:39:25.935Z,100.00
2018-07-04T02:42:14.233Z,100.00
2018-07-04T02:45:01.482Z,100.00
2018-07-04T02:47:48.285Z,100.00
2018-07-04T02:50:35.234Z,100.00
2018-07-04T02:56:11.702Z,100.00
2018-07-04T03:04:42.639Z,100.00
2018-07-04T03:07:29.757Z,100.00
2018-07-04T03:15:33.393Z,100.00
2018-07-04T03:23:43.425Z,100.00
2018-07-04T03:26:30.425Z,100.00
2018-07-04T03:29:21.690Z,100.00
2018-07-04T03:32:09.497Z,100.00
2018-07-04T03:34:56.518Z,100.00
2018-07-04T03:37:43.445Z,100.00
2018-07-04T03:45:54.157Z,100.00
2018-07-04T03:51:16.653Z,100.00
2018-07-04T03:56:42.176Z,100.00
2018-07-04T04:02:06.709Z,100.00
2018-07-04T04:04:53.697Z,100.00
2018-07-04T04:10:36.990Z,100.00
2018-07-04T04:13:24.245Z,100.00
2018-07-04T04:16:11.179Z,100.00
2018-07-04T04:21:33.957Z,97.08
2018-07-04T04:24:21.908Z,97.52
2018-07-04T04:27:09.919Z,97.18
2018-07-04T04:29:57.908Z,95.94
2018-07-04T04:32:45.054Z,95.82
2018-07-04T04:35:31.884Z,95.71
2018-07-04T04:38:19.917Z,95.98
2018-07-04T04:43:42.504Z,94.25
2018-07-04T04:46:29.363Z,94.49
2018-07-04T04:49:18.366Z,94.61
2018-07-04T04:54:47.254Z,94.26
2018-07-04T05:00:16.938Z,94.52
2018-07-04T05:03:04.075Z,94.64
2018-07-04T05:08:37.876Z,93.70
2018-07-04T05:11:24.926Z,94.00
2018-07-04T05:14:15.685Z,93.74
2018-07-04T05:22:23.493Z,91.25
2018-07-04T05:27:46.305Z,91.48
2018-07-04T05:30:34.385Z,91.22
2018-07-04T05:33:21.353Z,90.92
2018-07-04T05:41:22.149Z,88.89
2018-07-04T05:49:36.131Z,86.58
2018-07-04T05:52:24.046Z,87.37
2018-07-04T05:58:02.734Z,86.81
2018-07-04T06:00:55.041Z,86.86
2018-07-04T06:09:02.069Z,85.94
2018-07-04T06:14:33.637Z,83.43
2018-07-04T06:17:20.380Z,83.30
2018-07-04T06:20:07.368Z,81.76
2018-07-04T06:22:54.166Z,81.35
2018-07-04T06:25:41.431Z,80.76
2018-07-04T06:28:28.547Z,79.45
2018-07-04T06:34:03.242Z,76.48
2018-07-04T06:36:51.289Z,75.58
2018-07-04T06:39:19.585Z,73.03
2018-07-04T06:41:48.876Z,71.36
2018-07-04T06:44:17.306Z,70.96
2018-07-04T06:46:47.324Z,71.45
2018-07-04T06:49:19.218Z,69.25
2018-07-04T06:51:52.590Z,67.96
2018-07-04T06:54:20.886Z,69.41
2018-07-04T06:56:50.096Z,66.48
2018-07-04T06:59:19.285Z,63.37
2018-07-04T07:01:49.505Z,66.19
2018-07-04T07:10:10.019Z,65.44
2018-07-04T07:13:03.239Z,65.55
2018-07-04T07:15:53.586Z,65.54
2018-07-04T07:21:19.765Z,65.47
2018-07-04T07:26:53.554Z,62.97
2018-07-04T07:29:41.073Z,64.20
2018-07-04T07:32:28.191Z,61.31
2018-07-04T07:37:56.409Z,64.36
2018-07-04T07:40:43.302Z,63.65
2018-07-04T07:43:31.432Z,62.80
2018-07-04T07:46:19.430Z,62.25
2018-07-04T07:49:06.615Z,62.59
2018-07-04T07:51:54.019Z,64.50
2018-07-04T07:54:40.864Z,63.52
2018-07-04T08:00:21.508Z,62.54
2018-07-04T08:03:09.471Z,62.56
2018-07-04T08:05:57.929Z,61.80
2018-07-04T08:08:44.954Z,61.62
2018-07-04T08:11:32.093Z,61.99
2018-07-04T08:14:19.116Z,62.03
2018-07-04T08:17:06.041Z,60.79
2018-07-04T08:19:52.897Z,60.54
2018-07-04T08:27:52.566Z,60.34
2018-07-04T08:30:39.604Z,59.38
2018-07-04T08:33:26.696Z,58.33
2018-07-04T08:36:13.572Z,59.61
2018-07-04T08:39:02.615Z,58.04
2018-07-04T08:41:58.622Z,58.36
2018-07-04T08:44:47.085Z,55.83
2018-07-04T08:47:37.530Z,57.01
2018-07-04T08:50:24.468Z,55.33
2018-07-04T08:53:11.306Z,55.59
2018-07-04T08:55:58.371Z,53.62
2018-07-04T09:01:24.336Z,55.20
2018-07-04T09:04:11.462Z,53.63
2018-07-04T09:09:48.341Z,51.93
2018-07-04T09:12:35.349Z,53.74
2018-07-04T09:15:33.614Z,55.85
2018-07-04T09:18:21.701Z,54.98
2018-07-04T09:21:08.754Z,55.20
2018-07-04T09:23:57.874Z,54.89
2018-07-04T09:26:48.390Z,57.17
2018-07-04T09:29:39.860Z,58.78
2018-07-04T09:32:26.938Z,57.88
2018-07-04T09:35:14.149Z,57.47
2018-07-04T09:38:02.897Z,55.88
2018-07-04T09:43:30.850Z,55.69
2018-07-04T09:46:18.778Z,56.96
2018-07-04T09:49:05.856Z,55.18
2018-07-04T09:59:42.279Z,50.89
2018-07-04T10:02:30.077Z,49.96
2018-07-04T10:05:17.205Z,49.73
2018-07-04T10:08:05.299Z,50.55
2018-07-04T10:10:52.158Z,50.47
2018-07-04T10:13:44.129Z,49.50
2018-07-04T10:16:32.245Z,47.67
2018-07-04T10:19:20.291Z,47.54
2018-07-04T10:27:33.215Z,46.87
2018-07-04T10:30:20.214Z,47.45
2018-07-04T10:33:14.684Z,45.58
2018-07-04T10:36:04.009Z,46.04
2018-07-04T10:38:51.208Z,46.67
2018-07-04T10:41:38.188Z,48.02
2018-07-04T10:44:27.299Z,49.31
2018-07-04T10:47:20.156Z,50.56
2018-07-04T10:50:09.245Z,49.98
2018-07-04T10:52:59.904Z,50.58
2018-07-04T10:55:50.154Z,48.44
2018-07-04T10:58:37.222Z,45.91
2018-07-04T11:01:27.415Z,42.06
2018-07-04T11:09:25.819Z,33.37
2018-07-04T11:14:51.466Z,35.69
2018-07-04T11:17:40.564Z,30.45
2018-07-04T11:20:31.969Z,30.17
2018-07-04T11:28:42.759Z,33.86
2018-07-04T11:34:07.356Z,34.40
2018-07-04T11:36:56.642Z,36.58
2018-07-04T11:39:43.503Z,39.03
2018-07-04T11:42:30.415Z,39.13
2018-07-04T11:45:17.278Z,40.90
2018-07-04T11:47:45.541Z,43.43
2018-07-04T11:50:13.812Z,41.87
2018-07-04T11:52:42.973Z,44.62
2018-07-04T11:55:11.242Z,46.50
2018-07-04T12:00:25.043Z,70.40
2018-07-04T12:03:14.018Z,69.69
2018-07-04T12:06:02.753Z,74.54
2018-07-04T12:08:31.995Z,81.68
2018-07-04T12:11:00.480Z,75.96
2018-07-04T12:13:28.664Z,77.70
2018-07-04T12:15:56.910Z,77.51
2018-07-04T12:18:25.334Z,72.45
2018-07-04T12:20:53.634Z,69.54
2018-07-04T12:23:24.988Z,59.01
2018-07-04T12:26:01.023Z,54.53
2018-07-04T12:28:30.268Z,52.50
2018-07-04T12:30:58.553Z,46.85
2018-07-04T12:33:31.441Z,47.92
2018-07-04T12:36:02.984Z,50.44
2018-07-04T12:38:31.475Z,56.83
2018-07-04T12:41:00.690Z,55.44
2018-07-04T12:43:28.958Z,55.98
2018-07-04T12:45:57.217Z,58.44
2018-07-04T12:48:25.485Z,54.41
2018-07-04T12:50:53.747Z,49.47
2018-07-04T12:53:22.014Z,54.68
2018-07-04T12:58:49.749Z,49.24
2018-07-04T13:01:36.994Z,49.49
2018-07-04T13:07:00.671Z,46.49
2018-07-04T13:15:09.845Z,46.59
2018-07-04T13:23:13.957Z,48.41
2018-07-04T13:26:00.842Z,43.24
2018-07-04T13:28:51.466Z,43.67
2018-07-04T13:31:51.405Z,44.34
2018-07-04T13:40:01.094Z,46.33
2018-07-04T13:42:49.985Z,46.88
2018-07-04T13:48:14.682Z,45.35
2018-07-04T13:51:01.533Z,43.02
2018-07-04T13:53:50.589Z,41.00
2018-07-04T13:56:38.533Z,41.42
2018-07-04T13:59:26.348Z,42.86
2018-07-04T14:02:15.216Z,44.14
2018-07-04T14:05:04.327Z,44.18
2018-07-04T14:10:28.242Z,42.75
2018-07-04T14:15:51.203Z,41.69
2018-07-04T14:18:38.134Z,42.99
2018-07-04T14:21:25.987Z,43.26
2018-07-04T14:24:16.627Z,42.36
2018-07-04T14:27:03.510Z,42.30
2018-07-04T14:32:26.070Z,42.98
2018-07-04T14:35:13.086Z,45.21
2018-07-04T14:38:01.935Z,45.77
2018-07-04T14:40:58.628Z,46.56
2018-07-04T14:43:55.177Z,45.55
2018-07-04T14:46:50.196Z,44.85
2018-07-04T14:49:38.192Z,44.25
2018-07-04T14:52:25.264Z,43.06
2018-07-04T14:55:13.239Z,43.14
2018-07-04T15:03:22.143Z,41.60
2018-07-04T15:06:09.518Z,41.25
2018-07-04T15:08:57.301Z,41.61
2018-07-04T15:11:44.155Z,43.18
2018-07-04T15:20:17.082Z,46.64
2018-07-04T15:23:06.177Z,47.76
2018-07-04T15:28:38.914Z,49.34
2018-07-04T15:31:30.797Z,51.73
2018-07-04T15:39:49.646Z,51.56
2018-07-04T15:42:37.540Z,51.55
2018-07-04T15:45:25.390Z,52.53
2018-07-04T15:48:16.541Z,52.68
2018-07-04T15:51:04.575Z,51.80
2018-07-04T15:53:51.324Z,49.81
2018-07-04T15:56:38.322Z,46.89
2018-07-04T15:59:29.798Z,45.06
2018-07-04T16:02:16.704Z,44.41
2018-07-04T16:07:39.520Z,40.54
2018-07-04T16:10:26.542Z,42.28
2018-07-04T16:13:24.895Z,44.22
2018-07-04T16:16:12.877Z,42.15
2018-07-04T16:18:59.634Z,42.66
2018-07-04T16:24:22.176Z,36.21
2018-07-04T16:27:09.317Z,35.42
2018-07-04T16:29:56.228Z,34.75
2018-07-04T16:37:56.223Z,42.04
2018-07-04T16:40:51.085Z,44.25
2018-07-04T16:43:38.230Z,46.14
2018-07-04T16:46:35.860Z,46.53
2018-07-04T16:49:25.053Z,47.23
2018-07-04T17:00:06.096Z,48.33
2018-07-04T17:02:55.094Z,49.53
2018-07-04T17:05:43.026Z,49.82
2018-07-04T17:08:32.038Z,51.30
2018-07-04T17:11:19.013Z,51.64
2018-07-04T17:14:17.360Z,52.58
2018-07-04T17:17:12.836Z,53.73
2018-07-04T17:19:59.668Z,54.77
2018-07-04T17:28:05.688Z,53.29
2018-07-04T17:30:54.780Z,53.68
2018-07-04T17:33:42.608Z,54.64
2018-07-04T17:44:24.715Z,55.70
2018-07-04T17:47:11.507Z,55.77
2018-07-04T17:49:58.631Z,56.87
2018-07-04T17:52:45.428Z,57.22
2018-07-04T17:58:17.685Z,58.59
2018-07-04T18:01:04.830Z,59.47
2018-07-04T18:06:27.423Z,59.92
2018-07-04T18:09:14.585Z,62.09
2018-07-04T18:17:13.454Z,61.39
2018-07-04T18:20:00.437Z,62.19
2018-07-04T18:22:47.385Z,62.15
2018-07-04T18:25:37.671Z,61.48
2018-07-04T18:28:26.849Z,61.51
2018-07-04T18:36:29.316Z,62.23
2018-07-04T18:39:16.315Z,65.40
2018-07-04T18:47:19.017Z,69.78
2018-07-04T18:50:09.544Z,69.05
2018-07-04T18:52:56.434Z,72.74
2018-07-04T18:55:43.357Z,74.42
2018-07-04T19:03:54.488Z,73.56
2018-07-04T19:06:41.558Z,72.26
2018-07-04T19:09:30.560Z,72.02
2018-07-04T19:12:18.642Z,76.19
2018-07-04T19:15:09.332Z,76.74
2018-07-04T19:17:56.353Z,78.34
2018-07-04T19:20:43.606Z,79.23
2018-07-04T19:23:34.308Z,79.16
2018-07-04T19:31:45.652Z,77.74
2018-07-04T19:34:43.913Z,76.10
2018-07-04T19:37:33.999Z,78.09
2018-07-04T19:42:59.498Z,76.02
2018-07-04T19:56:40.441Z,77.52
2018-07-04T19:59:27.325Z,78.48
2018-07-04T20:02:14.149Z,80.27
2018-07-04T20:05:05.672Z,81.67
2018-07-04T20:10:45.377Z,79.63
2018-07-04T20:13:40.045Z,83.32
2018-07-04T20:19:02.748Z,83.08
2018-07-04T20:21:50.948Z,82.66
2018-07-04T20:30:01.665Z,84.52
2018-07-04T20:33:03.336Z,85.57
2018-07-04T20:35:59.948Z,84.96
2018-07-04T20:41:32.997Z,87.54
2018-07-04T20:44:21.073Z,89.41
2018-07-04T20:47:08.208Z,90.06
2018-07-04T20:57:47.536Z,87.18
2018-07-04T21:00:41.826Z,88.71
2018-07-04T21:03:29.861Z,89.76
2018-07-04T21:06:16.903Z,87.99
2018-07-04T21:09:03.896Z,84.88
2018-07-04T21:11:50.752Z,88.11
2018-07-04T21:14:46.733Z,87.54
2018-07-04T21:17:34.738Z,88.07
2018-07-04T21:22:59.410Z,87.32
2018-07-04T21:25:46.622Z,88.68
2018-07-04T21:28:33.438Z,89.94
2018-07-04T21:31:21.586Z,90.92
2018-07-04T21:36:47.418Z,86.88
2018-07-04T21:39:34.326Z,89.22
2018-07-04T21:45:03.957Z,91.83
2018-07-04T21:47:50.792Z,94.47
2018-07-04T21:53:16.334Z,95.59
2018-07-04T21:56:05.413Z,94.47
2018-07-04T21:58:52.449Z,96.01
2018-07-04T22:01:39.542Z,97.00
2018-07-04T22:07:04.327Z,95.74
2018-07-04T22:09:53.301Z,93.63
2018-07-04T22:15:26.977Z,95.54
2018-07-04T22:18:14.031Z,95.54
2018-07-04T22:21:01.828Z,95.69
2018-07-04T22:23:48.821Z,95.69
2018-07-04T22:31:50.705Z,93.94
2018-07-04T22:34:37.705Z,95.07
2018-07-04T22:37:25.678Z,94.11
2018-07-04T22:42:50.344Z,92.86
2018-07-04T22:45:38.450Z,92.42
2018-07-04T22:48:28.572Z,93.99
2018-07-04T22:51:17.546Z,93.56
2018-07-04T22:56:43.173Z,95.97
2018-07-04T22:59:30.306Z,96.23
2018-07-04T23:02:17.278Z,97.85
2018-07-04T23:07:39.930Z,96.22
2018-07-04T23:10:27.877Z,98.45
2018-07-04T23:15:54.494Z,96.48
2018-07-04T23:18:41.506Z,96.18
2018-07-04T23:21:28.529Z,95.07
2018-07-04T23:29:38.947Z,97.49
2018-07-04T23:32:26.026Z,97.89
2018-07-04T23:35:13.036Z,96.79
2018-07-04T23:38:00.029Z,97.05
2018-07-04T23:40:47.075Z,98.27
2018-07-04T23:43:36.005Z,95.79
2018-07-04T23:49:17.974Z,98.61
2018-07-04T23:52:04.945Z,100.00
2018-07-04T23:54:52.406Z,99.31
2018-07-04T23:57:39.257Z,97.86
